Terminal Aerodrome Forecast
Issued by NWS

Home | Current Version | Previous Version | Text Only | Print | Product List | Glossary On
Versions: 1 2 3 4 5 6 7 8 9 10 11 12 13 14 15 16 17 18 19 20
000
FTUS44 KMAF 230527
TAFCNM
TAF
KCNM 230527Z 2306/2406 16011KT P6SM SCT100 BKN250 PROB30 2315/2318
      6SM TSRA BKN020CB
     FM231800 16013G21KT P6SM BKN040 BKN150 PROB30 2318/2324
      VRB20G30KT 5SM TSRA BKN030CB=

USA.gov is the U.S. government's official web portal to all federal, state and local government web resources and services.